createdAt,value
2018-12-05T00:01:32.847Z,78092.06
2018-12-05T00:03:58.799Z,78093.06
2018-12-05T00:06:24.745Z,78096.06
2018-12-05T00:08:50.859Z,78098.06
2018-12-05T00:11:17.869Z,78095.06
2018-12-05T00:13:43.847Z,78106.08
2018-12-05T00:16:09.779Z,78116.09
2018-12-05T00:18:35.715Z,78114.08
2018-12-05T00:21:02.617Z,78117.09
2018-12-05T00:23:29.550Z,78110.08
2018-12-05T00:25:55.521Z,78111.08
2018-12-05T00:28:21.451Z,78113.08
2018-12-05T00:30:47.428Z,78117.09
2018-12-05T00:33:13.357Z,78121.09
2018-12-05T00:35:39.284Z,78122.09
2018-12-05T00:38:05.354Z,78120.09
2018-12-05T00:40:32.188Z,78121.09
2018-12-05T00:42:58.126Z,78122.09
2018-12-05T00:45:25.078Z,78125.09
2018-12-05T00:47:51.059Z,78126.09
2018-12-05T00:50:17.005Z,78130.10
2018-12-05T00:52:45.087Z,78129.10
2018-12-05T00:55:11.092Z,78131.10
2018-12-05T00:57:38.052Z,78133.11
2018-12-05T01:00:04.872Z,78123.09
2018-12-05T01:02:31.804Z,78127.09
2018-12-05T01:04:58.710Z,78133.11
2018-12-05T01:07:24.691Z,78144.12
2018-12-05T01:09:51.571Z,78142.12
2018-12-05T01:12:17.507Z,78139.11
2018-12-05T01:14:44.244Z,78145.12
2018-12-05T01:17:10.181Z,78153.13
2018-12-05T01:19:36.188Z,78156.13
2018-12-05T01:22:03.130Z,78150.13
2018-12-05T01:24:29.101Z,78149.13
2018-12-05T01:26:55.150Z,78146.13
2018-12-05T01:29:21.104Z,78142.12
2018-12-05T01:31:48.019Z,78144.12
2018-12-05T01:34:14.906Z,78144.12
2018-12-05T01:36:41.635Z,78153.13
2018-12-05T01:39:07.584Z,78154.13
2018-12-05T01:41:33.575Z,78154.13
2018-12-05T01:44:00.343Z,78149.13
2018-12-05T01:46:27.088Z,78152.13
2018-12-05T01:48:53.875Z,78147.13
2018-12-05T01:51:19.813Z,78147.13
2018-12-05T01:53:45.753Z,78146.13
2018-12-05T01:56:13.635Z,78149.13
2018-12-05T01:58:39.560Z,78152.13
2018-12-05T02:01:06.411Z,78152.13
2018-12-05T02:03:32.340Z,78149.13
2018-12-05T02:05:58.277Z,78149.13
2018-12-05T02:08:25.079Z,78144.12
2018-12-05T02:10:51.935Z,78144.12
2018-12-05T02:13:17.871Z,78144.12
2018-12-05T02:15:43.809Z,78146.13
2018-12-05T02:18:09.749Z,78157.13
2018-12-05T02:20:36.514Z,78156.13
2018-12-05T02:23:02.450Z,78154.13
2018-12-05T02:25:28.386Z,78152.13
2018-12-05T02:27:54.336Z,78154.13
2018-12-05T02:30:21.174Z,78156.13
2018-12-05T02:32:47.980Z,78158.13
2018-12-05T02:35:13.913Z,78171.16
2018-12-05T02:37:39.855Z,78169.15
2018-12-05T02:40:06.610Z,78173.16
2018-12-05T02:42:33.462Z,78166.14
2018-12-05T02:44:59.432Z,78168.15
2018-12-05T02:47:25.376Z,78168.15
2018-12-05T02:49:51.327Z,78173.16
2018-12-05T02:52:18.228Z,78182.16
2018-12-05T02:54:44.167Z,78191.17
2018-12-05T02:57:10.899Z,78189.17
2018-12-05T02:59:36.841Z,78182.16
2018-12-05T03:02:02.910Z,78182.16
2018-12-05T03:04:28.867Z,78187.17
2018-12-05T03:06:54.813Z,78188.17
2018-12-05T03:09:20.802Z,78198.19
2018-12-05T03:11:46.737Z,78199.19
2018-12-05T03:14:13.584Z,78202.19
2018-12-05T03:16:40.400Z,78204.19
2018-12-05T03:19:06.336Z,78207.20
2018-12-05T03:21:32.270Z,78204.19
2018-12-05T03:23:58.196Z,78206.19
2018-12-05T03:26:24.185Z,78209.20
2018-12-05T03:28:50.774Z,78210.20
2018-12-05T03:31:17.133Z,78208.20
2018-12-05T03:33:44.063Z,78201.19
2018-12-05T03:36:11.063Z,78206.19
2018-12-05T03:38:37.861Z,78215.20
2018-12-05T03:41:04.882Z,78219.20
2018-12-05T03:43:31.788Z,78216.20
2018-12-05T03:45:58.610Z,78213.20
2018-12-05T03:48:25.469Z,78211.20
2018-12-05T03:50:52.186Z,78214.20
2018-12-05T03:53:18.966Z,78212.20
2018-12-05T03:55:45.068Z,78216.20
2018-12-05T03:58:11.077Z,78213.20
2018-12-05T04:00:37.838Z,78221.21
2018-12-05T04:03:03.839Z,78222.21
2018-12-05T04:05:29.795Z,78216.20
2018-12-05T04:07:56.576Z,78211.20
2018-12-05T04:10:23.498Z,78217.20
2018-12-05T04:12:49.460Z,78215.20
2018-12-05T04:15:15.521Z,78217.20
2018-12-05T04:17:43.234Z,78223.21
2018-12-05T04:20:09.894Z,78226.22
2018-12-05T04:22:35.842Z,78226.22
2018-12-05T04:25:01.841Z,78223.21
2018-12-05T04:27:28.710Z,78228.22
2018-12-05T04:29:54.659Z,78225.22
2018-12-05T04:32:21.600Z,78228.22
2018-12-05T04:34:47.567Z,78228.22
2018-12-05T04:37:13.505Z,78237.23
2018-12-05T04:39:39.473Z,78236.23
2018-12-05T04:42:05.426Z,78242.23
2018-12-05T04:44:31.352Z,78236.23
2018-12-05T04:46:57.334Z,78234.23
2018-12-05T04:49:24.235Z,78241.23
2018-12-05T04:51:51.149Z,78241.23
2018-12-05T04:54:17.131Z,78253.25
2018-12-05T04:56:44.463Z,78266.27
2018-12-05T04:59:11.349Z,78261.27
2018-12-05T05:01:37.283Z,78268.27
2018-12-05T05:04:03.202Z,78272.27
2018-12-05T05:06:29.150Z,78274.28
2018-12-05T05:08:56.064Z,78271.27
2018-12-05T05:11:22.925Z,78275.28
2018-12-05T05:13:48.915Z,78282.28
2018-12-05T05:16:15.718Z,78280.28
2018-12-05T05:18:43.658Z,78280.28
2018-12-05T05:21:10.424Z,78284.29
2018-12-05T05:23:37.306Z,78280.28
2018-12-05T05:26:03.240Z,78278.28
2018-12-05T05:28:29.216Z,78289.30
2018-12-05T05:30:55.202Z,78294.30
2018-12-05T05:33:21.128Z,78295.30
2018-12-05T05:35:47.073Z,78294.30
2018-12-05T05:38:14.980Z,78296.30
2018-12-05T05:40:41.850Z,78296.30
2018-12-05T05:43:07.830Z,78293.30
2018-12-05T05:45:34.680Z,78304.31
2018-12-05T05:48:01.514Z,78314.33
2018-12-05T05:50:28.419Z,78318.33
2018-12-05T05:52:55.267Z,78316.33
2018-12-05T05:55:22.130Z,78320.33
2018-12-05T05:57:48.163Z,78325.34
2018-12-05T06:00:15.127Z,78332.34
2018-12-05T06:02:41.253Z,78331.34
2018-12-05T06:05:08.130Z,78334.34
2018-12-05T06:07:34.234Z,78324.34
2018-12-05T06:10:01.111Z,78328.34
2018-12-05T06:12:27.066Z,78331.34
2018-12-05T06:14:53.014Z,78328.34
2018-12-05T06:17:18.956Z,78336.35
2018-12-05T06:19:44.878Z,78337.35
2018-12-05T06:22:10.812Z,78336.35
2018-12-05T06:24:37.626Z,78339.36
2018-12-05T06:27:04.515Z,78336.35
2018-12-05T06:29:30.533Z,78336.35
2018-12-05T06:31:57.581Z,78339.36
2018-12-05T06:34:24.476Z,78344.36
2018-12-05T06:36:51.210Z,78350.37
2018-12-05T06:39:17.155Z,78352.38
2018-12-05T06:41:43.084Z,78350.37
2018-12-05T06:44:09.013Z,78354.38
2018-12-05T06:46:34.939Z,78354.38
2018-12-05T06:49:00.874Z,78356.38
2018-12-05T06:51:26.850Z,78364.39
2018-12-05T06:53:52.787Z,78361.38
2018-12-05T06:56:19.617Z,78367.39
2018-12-05T06:58:45.563Z,78368.39
2018-12-05T07:01:11.501Z,78365.39
2018-12-05T07:03:37.430Z,78370.39
2018-12-05T07:06:03.372Z,78374.40
2018-12-05T07:08:29.302Z,78381.41
2018-12-05T07:10:55.242Z,78376.41
2018-12-05T07:13:21.180Z,78383.41
2018-12-05T07:15:47.158Z,78385.41
2018-12-05T07:18:13.127Z,78382.41
2018-12-05T07:20:39.858Z,78387.41
2018-12-05T07:23:05.975Z,78384.41
2018-12-05T07:25:31.965Z,78386.41
2018-12-05T07:27:57.973Z,78389.42
2018-12-05T07:30:29.440Z,78384.41
2018-12-05T07:32:52.033Z,78380.41
2018-12-05T07:35:18.055Z,78378.41
2018-12-05T07:37:44.028Z,78382.41
2018-12-05T07:40:10.009Z,78379.41
2018-12-05T07:42:36.059Z,78380.41
2018-12-05T07:45:09.037Z,78376.41
2018-12-05T07:47:35.880Z,78378.41
2018-12-05T07:50:01.915Z,78376.41
2018-12-05T07:52:27.901Z,78376.41
2018-12-05T07:54:54.802Z,78382.41
2018-12-05T07:57:20.772Z,78384.41
2018-12-05T07:59:46.719Z,78384.41
2018-12-05T08:02:13.512Z,78381.41
2018-12-05T08:04:40.082Z,78381.41
2018-12-05T08:07:06.032Z,78388.41
2018-12-05T08:09:32.761Z,78390.42
2018-12-05T08:11:58.739Z,78387.41
2018-12-05T08:14:24.787Z,78387.41
2018-12-05T08:16:50.805Z,78384.41
2018-12-05T08:19:16.902Z,78380.41
2018-12-05T08:21:43.813Z,78384.41
2018-12-05T08:24:09.750Z,78391.42
2018-12-05T08:26:36.554Z,78392.42
2018-12-05T08:29:02.544Z,78390.42
2018-12-05T08:31:28.489Z,78388.41
2018-12-05T08:33:54.431Z,78387.41
2018-12-05T08:36:20.437Z,78392.42
2018-12-05T08:38:46.526Z,78402.44
2018-12-05T08:41:12.693Z,78396.42
2018-12-05T08:43:38.651Z,78396.42
2018-12-05T08:46:05.610Z,78401.44
2018-12-05T08:48:31.508Z,78393.42
2018-12-05T08:50:57.486Z,78383.41
2018-12-05T08:53:23.547Z,78374.40
2018-12-05T08:55:50.514Z,78377.41
2018-12-05T08:58:16.448Z,78369.39
2018-12-05T09:00:43.489Z,78372.39
2018-12-05T09:03:10.273Z,78369.39
2018-12-05T09:05:36.216Z,78381.41
2018-12-05T09:08:03.253Z,78370.39
2018-12-05T09:10:30.180Z,78372.39
2018-12-05T09:12:56.198Z,78372.39
2018-12-05T09:15:23.137Z,78374.40
2018-12-05T09:17:50.068Z,78371.39
2018-12-05T09:20:16.849Z,78370.39
2018-12-05T09:22:43.679Z,78384.41
2018-12-05T09:25:09.632Z,78392.42
2018-12-05T09:27:35.666Z,78381.41
2018-12-05T09:30:02.675Z,78379.41
2018-12-05T09:32:29.641Z,78372.39
2018-12-05T09:34:56.520Z,78378.41
2018-12-05T09:37:23.267Z,78369.39
2018-12-05T09:39:50.057Z,78369.39
2018-12-05T09:42:16.855Z,78376.41
2018-12-05T09:44:43.614Z,78372.39
2018-12-05T09:47:15.737Z,78370.39
2018-12-05T09:49:38.372Z,78366.39
2018-12-05T09:52:04.357Z,78364.39
2018-12-05T09:54:31.187Z,78371.39
2018-12-05T09:56:57.167Z,78376.41
2018-12-05T09:59:23.914Z,78378.41
2018-12-05T10:01:49.856Z,78375.40
2018-12-05T10:04:16.698Z,78375.40
2018-12-05T10:06:43.571Z,78375.40
2018-12-05T10:09:10.540Z,78373.40
2018-12-05T10:11:36.588Z,78369.39
2018-12-05T10:14:02.547Z,78370.39
2018-12-05T10:16:28.486Z,78380.41
2018-12-05T10:18:54.443Z,78377.41
2018-12-05T10:21:20.392Z,78381.41
2018-12-05T10:23:46.366Z,78378.41
2018-12-05T10:26:14.203Z,78374.40
2018-12-05T10:28:40.139Z,78371.39
2018-12-05T10:31:06.183Z,78368.39
2018-12-05T10:33:32.115Z,78370.39
2018-12-05T10:35:58.097Z,78374.40
2018-12-05T10:38:24.029Z,78368.39
2018-12-05T10:40:49.956Z,78362.38
2018-12-05T10:43:15.904Z,78360.38
2018-12-05T10:45:41.857Z,78351.37
2018-12-05T10:48:07.785Z,78349.37
2018-12-05T10:50:34.621Z,78345.36
2018-12-05T10:53:01.381Z,78348.36
2018-12-05T10:55:28.190Z,78351.37
2018-12-05T10:57:54.125Z,78348.36
2018-12-05T11:00:23.281Z,78345.36
2018-12-05T11:02:56.235Z,78340.36
2018-12-05T11:05:26.188Z,78344.36
2018-12-05T11:07:58.192Z,78343.36
2018-12-05T11:10:30.231Z,78347.36
2018-12-05T11:16:27.400Z,78352.38
2018-12-05T11:18:59.412Z,78345.36
2018-12-05T11:21:31.478Z,78345.36
2018-12-05T11:23:59.441Z,78339.36
2018-12-05T11:26:25.533Z,78330.34
2018-12-05T11:28:51.459Z,78340.36
2018-12-05T11:31:17.396Z,78336.35
2018-12-05T11:33:43.331Z,78338.35
2018-12-05T11:36:09.281Z,78336.35
2018-12-05T11:38:35.232Z,78335.34
2018-12-05T11:41:01.227Z,78335.34
2018-12-05T11:43:28.089Z,78332.34
2018-12-05T11:45:54.972Z,78338.35
2018-12-05T11:48:20.988Z,78331.34
2018-12-05T11:50:46.925Z,78337.35
2018-12-05T11:53:14.758Z,78342.36
2018-12-05T11:55:41.588Z,78341.36
2018-12-05T11:58:08.518Z,78337.35
2018-12-05T12:00:35.379Z,78337.35
2018-12-05T12:03:01.310Z,78335.34
2018-12-05T12:05:28.244Z,78332.34
2018-12-05T12:07:55.229Z,78328.34
2018-12-05T12:10:23.240Z,78334.34
2018-12-05T12:12:56.156Z,78334.34
2018-12-05T12:15:22.137Z,78328.34
2018-12-05T12:17:49.131Z,78323.34
2018-12-05T12:20:15.060Z,78317.33
2018-12-05T12:22:41.930Z,78313.32
2018-12-05T12:25:07.904Z,78316.33
2018-12-05T12:27:33.897Z,78315.33
2018-12-05T12:29:59.871Z,78310.32
2018-12-05T12:32:25.849Z,78310.32
2018-12-05T12:34:52.754Z,78302.31
2018-12-05T12:37:19.572Z,78302.31
2018-12-05T12:39:45.550Z,78307.31
2018-12-05T12:42:13.429Z,78302.31
2018-12-05T12:44:40.193Z,78303.31
2018-12-05T12:47:06.226Z,78303.31
2018-12-05T12:49:32.200Z,78306.31
2018-12-05T12:51:58.970Z,78304.31
2018-12-05T12:54:25.799Z,78293.30
2018-12-05T12:56:52.704Z,78285.29
2018-12-05T12:59:19.536Z,78282.28
2018-12-05T13:01:46.536Z,78284.29
2018-12-05T13:04:13.417Z,78282.28
2018-12-05T13:06:40.295Z,78282.28
2018-12-05T13:09:07.077Z,78278.28
2018-12-05T13:11:33.998Z,78282.28
2018-12-05T13:14:00.880Z,78276.28
2018-12-05T13:16:27.666Z,78279.28
2018-12-05T13:18:54.447Z,78279.28
2018-12-05T13:21:21.156Z,78282.28
2018-12-05T13:23:47.149Z,78281.28
2018-12-05T13:26:14.468Z,78282.28
2018-12-05T13:28:40.658Z,78276.28
2018-12-05T13:31:06.595Z,78271.27
2018-12-05T13:33:33.541Z,78272.27
2018-12-05T13:35:59.519Z,78276.28
2018-12-05T13:38:26.469Z,78272.27
2018-12-05T13:40:52.456Z,78270.27
2018-12-05T13:43:19.386Z,78272.27
2018-12-05T13:45:45.306Z,78266.27
2018-12-05T13:48:13.123Z,78269.27
2018-12-05T13:50:40.015Z,78272.27
2018-12-05T13:53:06.901Z,78265.27
2018-12-05T13:55:33.819Z,78266.27
2018-12-05T13:57:59.754Z,78263.27
2018-12-05T14:00:25.700Z,78259.26
2018-12-05T14:02:51.693Z,78266.27
2018-12-05T14:05:17.637Z,78261.27
2018-12-05T14:07:43.611Z,78261.27
2018-12-05T14:10:09.541Z,78253.25
2018-12-05T14:12:38.350Z,78256.25
2018-12-05T14:15:05.620Z,78257.25
2018-12-05T14:17:31.620Z,78267.27
2018-12-05T14:19:57.555Z,78271.27
2018-12-05T14:22:23.503Z,78262.27
2018-12-05T14:24:50.246Z,78264.27
2018-12-05T14:27:17.031Z,78251.25
2018-12-05T14:29:44.337Z,78246.23
2018-12-05T14:32:10.268Z,78238.23
2018-12-05T14:34:37.077Z,78237.23
2018-12-05T14:37:03.843Z,78235.23
2018-12-05T14:39:29.780Z,78234.23
2018-12-05T14:41:56.571Z,78237.23
2018-12-05T14:44:23.453Z,78238.23
2018-12-05T14:46:50.292Z,78235.23
2018-12-05T14:49:17.090Z,78231.22
2018-12-05T14:51:43.878Z,78236.23
2018-12-05T14:54:10.824Z,78234.23
2018-12-05T14:56:36.790Z,78233.22
2018-12-05T14:59:03.520Z,78240.23
2018-12-05T15:01:29.471Z,78240.23
2018-12-05T15:03:56.221Z,78233.22
2018-12-05T15:06:23.060Z,78236.23
2018-12-05T15:08:49.918Z,78237.23
2018-12-05T15:11:16.743Z,78233.22
2018-12-05T15:13:43.489Z,78239.23
2018-12-05T15:16:10.266Z,78246.23
2018-12-05T15:18:37.092Z,78245.23
2018-12-05T15:21:03.872Z,78245.23
2018-12-05T15:23:30.599Z,78236.23
2018-12-05T15:25:57.366Z,78237.23
2018-12-05T15:28:23.308Z,78231.22
2018-12-05T15:30:49.248Z,78231.22
2018-12-05T15:33:15.199Z,78233.22
2018-12-05T15:35:41.136Z,78227.22
2018-12-05T15:38:08.110Z,78223.21
2018-12-05T15:40:34.868Z,78220.20
2018-12-05T15:43:01.600Z,78219.20
2018-12-05T15:45:28.399Z,78224.22
2018-12-05T15:47:54.332Z,78226.22
2018-12-05T15:50:20.275Z,78216.20
2018-12-05T15:52:46.203Z,78218.20
2018-12-05T15:55:12.785Z,78217.20
2018-12-05T15:57:38.709Z,78214.20
2018-12-05T16:00:05.724Z,78214.20
2018-12-05T16:02:31.668Z,78213.20
2018-12-05T16:04:57.597Z,78213.20
2018-12-05T16:07:23.617Z,78212.20
2018-12-05T16:09:49.580Z,78206.19
2018-12-05T16:12:15.512Z,78200.19
2018-12-05T16:14:41.465Z,78200.19
2018-12-05T16:17:07.431Z,78196.18
2018-12-05T16:19:33.363Z,78197.19
2018-12-05T16:21:59.293Z,78202.19
2018-12-05T16:24:25.239Z,78193.17
2018-12-05T16:26:51.545Z,78193.17
2018-12-05T16:29:17.557Z,78196.18
2018-12-05T16:31:43.734Z,78191.17
2018-12-05T16:34:10.747Z,78193.17
2018-12-05T16:36:36.745Z,78198.19
2018-12-05T16:39:04.833Z,78202.19
2018-12-05T16:41:31.671Z,78199.19
2018-12-05T16:43:58.420Z,78196.18
2018-12-05T16:46:24.403Z,78196.18
2018-12-05T16:48:51.137Z,78192.17
2018-12-05T16:51:17.113Z,78194.18
2018-12-05T16:53:43.386Z,78199.19
2018-12-05T16:56:10.407Z,78195.18
2018-12-05T16:58:37.517Z,78192.17
2018-12-05T17:01:04.509Z,78194.18
2018-12-05T17:03:31.405Z,78193.17
2018-12-05T17:05:58.166Z,78193.17
2018-12-05T17:08:24.152Z,78191.17
2018-12-05T17:10:50.085Z,78190.17
2018-12-05T17:13:17.036Z,78192.17
2018-12-05T17:15:44.681Z,78186.17
2018-12-05T17:18:11.547Z,78188.17
2018-12-05T17:20:38.413Z,78184.17
2018-12-05T17:23:04.376Z,78188.17
2018-12-05T17:25:30.363Z,78192.17
2018-12-05T17:27:56.311Z,78188.17
2018-12-05T17:30:23.298Z,78178.16
2018-12-05T17:32:50.116Z,78180.16
2018-12-05T17:35:16.981Z,78174.16
2018-12-05T17:37:44.233Z,78174.16
2018-12-05T17:40:10.442Z,78179.16
2018-12-05T17:42:36.363Z,78176.16
2018-12-05T17:45:03.082Z,78172.16
2018-12-05T17:47:29.950Z,78171.16
2018-12-05T17:49:56.771Z,78168.15
2018-12-05T17:52:23.605Z,78162.14
2018-12-05T17:54:50.353Z,78160.14
2018-12-05T17:57:17.263Z,78154.13
2018-12-05T17:59:43.276Z,78150.13
2018-12-05T18:02:10.103Z,78150.13
2018-12-05T18:04:36.046Z,78149.13
2018-12-05T18:07:02.939Z,78146.13
2018-12-05T18:09:29.721Z,78150.13
2018-12-05T18:12:02.605Z,78144.12
2018-12-05T18:14:29.379Z,78142.12
2018-12-05T18:16:55.313Z,78140.11
2018-12-05T18:19:22.218Z,78137.11
2018-12-05T18:21:48.973Z,78138.11
2018-12-05T18:24:15.838Z,78141.11
2018-12-05T18:26:41.770Z,78145.12
2018-12-05T18:29:08.702Z,78142.12
2018-12-05T18:31:34.651Z,78140.11
2018-12-05T18:34:00.576Z,78132.11
2018-12-05T18:36:26.517Z,78130.10
2018-12-05T18:38:52.536Z,78132.11
2018-12-05T18:41:18.566Z,78131.10
2018-12-05T18:43:44.537Z,78130.10
2018-12-05T18:46:11.328Z,78131.10
2018-12-05T18:48:37.301Z,78125.09
2018-12-05T18:51:03.244Z,78130.10
2018-12-05T18:53:30.072Z,78130.10
2018-12-05T18:55:57.081Z,78136.11
2018-12-05T18:58:23.825Z,78137.11
2018-12-05T19:00:50.612Z,78141.11
2018-12-05T19:03:17.517Z,78142.12
2018-12-05T19:05:44.563Z,78129.10
2018-12-05T19:08:11.457Z,78130.10
2018-12-05T19:10:37.399Z,78133.11
2018-12-05T19:13:04.937Z,78131.10
2018-12-05T19:15:31.727Z,78128.09
2018-12-05T19:17:58.516Z,78127.09
2018-12-05T19:20:24.453Z,78128.09
2018-12-05T19:22:51.302Z,78131.10
2018-12-05T19:25:18.147Z,78126.09
2018-12-05T19:27:45.106Z,78123.09
2018-12-05T19:30:11.211Z,78119.09
2018-12-05T19:32:37.148Z,78118.09
2018-12-05T19:35:03.323Z,78118.09
2018-12-05T19:37:29.267Z,78122.09
2018-12-05T19:39:55.209Z,78120.09
2018-12-05T19:42:21.160Z,78119.09
2018-12-05T19:44:47.088Z,78124.09
2018-12-05T19:47:13.232Z,78121.09
2018-12-05T19:49:39.216Z,78122.09
2018-12-05T19:52:05.137Z,78130.10
2018-12-05T19:54:31.125Z,78132.11
2018-12-05T19:56:57.888Z,78132.11
2018-12-05T19:59:24.769Z,78128.09
2018-12-05T20:01:51.496Z,78125.09
2018-12-05T20:04:17.439Z,78118.09
2018-12-05T20:06:44.439Z,78121.09
2018-12-05T20:09:10.495Z,78120.09
2018-12-05T20:11:37.421Z,78134.11
2018-12-05T20:14:04.179Z,78130.10
2018-12-05T20:16:31.059Z,78132.11
2018-12-05T20:18:57.870Z,78129.10
2018-12-05T20:21:24.848Z,78128.09
2018-12-05T20:23:51.846Z,78116.09
2018-12-05T20:26:18.635Z,78120.09
2018-12-05T20:28:45.960Z,78185.17
2018-12-05T20:31:12.004Z,78151.13
2018-12-05T20:33:38.074Z,78134.11
2018-12-05T20:36:04.377Z,78126.09
2018-12-05T20:38:30.405Z,78114.08
2018-12-05T20:40:56.480Z,78108.08
2018-12-05T20:43:23.582Z,78111.08
2018-12-05T20:45:49.546Z,78109.08
2018-12-05T20:48:15.544Z,78103.07
2018-12-05T20:50:41.511Z,78096.06
2018-12-05T20:53:07.456Z,78099.06
2018-12-05T20:55:33.413Z,78096.06
2018-12-05T20:57:59.459Z,78104.07
2018-12-05T21:00:25.576Z,78111.08
2018-12-05T21:02:51.685Z,78116.09
2018-12-05T21:05:18.584Z,78110.08
2018-12-05T21:07:44.865Z,78107.08
2018-12-05T21:10:10.847Z,78103.07
2018-12-05T21:12:36.847Z,78096.06
2018-12-05T21:15:03.286Z,78095.06
2018-12-05T21:17:29.228Z,78092.06
2018-12-05T21:19:55.176Z,78083.05
2018-12-05T21:22:21.924Z,78083.05
2018-12-05T21:24:47.891Z,78078.05
2018-12-05T21:27:13.870Z,78076.04
2018-12-05T21:29:39.847Z,78075.04
2018-12-05T21:32:05.800Z,78073.03
2018-12-05T21:34:31.750Z,78066.03
2018-12-05T21:36:58.612Z,78070.03
2018-12-05T21:39:24.598Z,78065.03
2018-12-05T21:41:51.643Z,78064.02
2018-12-05T21:44:18.358Z,78062.02
2018-12-05T21:46:44.911Z,78062.02
2018-12-05T21:49:11.148Z,78064.02
2018-12-05T21:51:44.850Z,78062.02
2018-12-05T21:54:11.927Z,78058.02
2018-12-05T21:56:38.888Z,78054.02
2018-12-05T21:59:04.829Z,78055.02
2018-12-05T22:01:30.772Z,78058.02
2018-12-05T22:03:57.093Z,78055.02
2018-12-05T22:06:23.492Z,78053.02
2018-12-05T22:08:49.432Z,78052.02
2018-12-05T22:11:16.338Z,78053.02
2018-12-05T22:13:43.259Z,78049.01
2018-12-05T22:16:09.232Z,78050.01
2018-12-05T22:18:36.097Z,78053.02
2018-12-05T22:21:03.079Z,78056.02
2018-12-05T22:23:29.018Z,78053.02
2018-12-05T22:25:56.825Z,78049.01
2018-12-05T22:28:22.758Z,78048.00
2018-12-05T22:30:50.167Z,78044.00
2018-12-05T22:33:16.335Z,78034.99
2018-12-05T22:35:43.288Z,78040.00
2018-12-05T22:38:09.228Z,78039.00
2018-12-05T22:40:35.167Z,78044.00
2018-12-05T22:43:01.158Z,78035.99
2018-12-05T22:45:27.151Z,78029.98
2018-12-05T22:47:53.085Z,78023.98
2018-12-05T22:50:19.827Z,78019.97
2018-12-05T22:52:45.752Z,78022.98
2018-12-05T22:55:11.763Z,78019.97
2018-12-05T22:57:38.551Z,78017.97
2018-12-05T23:00:06.008Z,78015.97
2018-12-05T23:02:32.866Z,78005.95
2018-12-05T23:04:58.805Z,77995.95
2018-12-05T23:07:25.726Z,77990.94
2018-12-05T23:09:52.526Z,77984.94
2018-12-05T23:12:18.457Z,77979.93
2018-12-05T23:14:44.401Z,77977.93
2018-12-05T23:17:11.543Z,77973.92
2018-12-05T23:19:37.473Z,77969.92
2018-12-05T23:22:03.407Z,77975.92
2018-12-05T23:24:29.517Z,77967.92
2018-12-05T23:26:55.442Z,77969.92
2018-12-05T23:29:21.372Z,77963.91
2018-12-05T23:31:47.333Z,77965.91
2018-12-05T23:34:13.258Z,77962.91
2018-12-05T23:36:39.235Z,77964.91
2018-12-05T23:39:06.049Z,77960.91
2018-12-05T23:41:32.059Z,77953.90
2018-12-05T23:43:58.948Z,77947.89
2018-12-05T23:46:25.762Z,77943.89
2018-12-05T23:48:51.696Z,77938.88
2018-12-05T23:51:17.674Z,77941.89
2018-12-05T23:53:44.607Z,77939.88
2018-12-05T23:56:11.397Z,77931.88
2018-12-05T23:58:38.341Z,77924.87
